Berkley, Michigan
Current Conditions -  °F | °C
As of 9:34 AM on Sunday 21 Dec 2014 (Local Time) from KVLL Reporting Station
Broken Clouds Broken Clouds  
Wind Chill: 31°   Ceiling: 6000
Heat Index: 31°   Visibility: 7mi
Dew Point: 24°   Wind: 3mph
Humidity: 73%   Direction: 150°SSE
Pressure: 30.31"   Gusts: NA
Location:  42.5°N, 83.18°W
Report Text: KVLL 211434Z AUTO 15003KT 7SM BKN060 00/M05 A3031 RMK AO2 T10031047
Loading
Personal Weather Stations






























Interactive Weather Map New forecast layout! Learn more

10-Day Weather Forecast

Advertisements
Track Severe Weather on mobile